createdAt,value
2022-09-03T00:02:03.452Z,3.25
2022-09-03T00:04:53.212Z,3.45
2022-09-03T00:07:11.904Z,3.42
2022-09-03T00:09:25.453Z,3.45
2022-09-03T00:12:02.847Z,3.33
2022-09-03T00:14:09.505Z,3.28
2022-09-03T00:16:15.947Z,3.78
2022-09-03T00:18:22.696Z,4.00
2022-09-03T00:20:39.608Z,3.70
2022-09-03T00:22:49.695Z,3.47
2022-09-03T00:24:53.150Z,3.17
2022-09-03T00:27:00.979Z,3.58
2022-09-03T00:29:09.726Z,3.42
2022-09-03T00:31:27.586Z,3.72
2022-09-03T00:33:34.216Z,3.92
2022-09-03T00:35:51.973Z,4.13
2022-09-03T00:37:55.571Z,3.30
2022-09-03T00:39:57.590Z,4.20
2022-09-03T00:42:08.648Z,3.70
2022-09-03T00:44:27.304Z,3.90
2022-09-03T00:46:53.317Z,3.47
2022-09-03T00:49:49.437Z,3.63
2022-09-03T00:51:56.866Z,3.42
2022-09-03T00:54:27.387Z,3.65
2022-09-03T00:57:18.588Z,3.05
2022-09-03T00:59:44.229Z,3.20
2022-09-03T01:02:04.119Z,3.15
2022-09-03T01:04:15.034Z,3.30
2022-09-03T01:06:24.596Z,3.38
2022-09-03T01:08:44.818Z,3.42
2022-09-03T01:11:35.349Z,3.60
2022-09-03T01:13:47.619Z,3.78
2022-09-03T01:16:02.134Z,4.20
2022-09-03T01:18:11.177Z,3.60
2022-09-03T01:20:32.784Z,3.75
2022-09-03T01:23:17.209Z,4.72
2022-09-03T01:25:24.421Z,6.75
2022-09-03T01:28:02.235Z,10.85
2022-09-03T01:30:15.659Z,3.92
2022-09-03T01:32:26.132Z,4.05
2022-09-03T01:35:04.668Z,3.67
2022-09-03T01:37:29.026Z,4.15
2022-09-03T01:39:47.027Z,3.17
2022-09-03T01:42:10.315Z,3.50
2022-09-03T01:44:23.822Z,3.30
2022-09-03T01:46:36.009Z,3.97
2022-09-03T01:49:00.164Z,3.60
2022-09-03T01:51:18.168Z,3.70
2022-09-03T01:53:49.004Z,3.85
2022-09-03T01:56:38.978Z,3.80
2022-09-03T01:58:46.540Z,3.97
2022-09-03T02:00:57.001Z,3.47
2022-09-03T02:03:05.985Z,3.35
2022-09-03T02:05:10.900Z,4.00
2022-09-03T02:07:12.883Z,3.20
2022-09-03T02:09:16.160Z,3.10
2022-09-03T02:11:18.124Z,3.63
2022-09-03T02:13:52.249Z,2.85
2022-09-03T02:15:58.297Z,3.20
2022-09-03T02:18:04.250Z,3.05
2022-09-03T02:20:12.059Z,2.88
2022-09-03T02:22:14.010Z,3.75
2022-09-03T02:24:16.202Z,2.53
2022-09-03T02:26:25.294Z,2.97
2022-09-03T02:28:29.410Z,3.03
2022-09-03T02:30:31.503Z,3.60
2022-09-03T02:32:34.856Z,3.22
2022-09-03T02:34:36.819Z,3.22
2022-09-03T02:36:42.555Z,2.72
2022-09-03T02:38:46.061Z,3.08
2022-09-03T02:40:48.300Z,2.70
2022-09-03T02:42:50.970Z,3.15
2022-09-03T02:45:00.627Z,2.75
2022-09-03T02:47:05.799Z,3.00
2022-09-03T02:49:08.593Z,3.33
2022-09-03T02:51:13.868Z,3.22
2022-09-03T02:53:17.082Z,2.75
2022-09-03T02:55:20.587Z,2.95
2022-09-03T02:57:23.075Z,3.17
2022-09-03T02:59:38.362Z,2.75
2022-09-03T03:01:40.338Z,3.22
2022-09-03T03:03:43.856Z,3.17
2022-09-03T03:05:50.159Z,2.70
2022-09-03T03:07:52.127Z,3.08
2022-09-03T03:09:54.092Z,3.13
2022-09-03T03:11:56.044Z,2.85
2022-09-03T03:13:58.252Z,2.90
2022-09-03T03:16:02.759Z,2.95
2022-09-03T03:18:05.297Z,3.45
2022-09-03T03:20:08.553Z,3.33
2022-09-03T03:22:10.674Z,2.85
2022-09-03T03:24:12.652Z,3.05
2022-09-03T03:26:20.194Z,3.03
2022-09-03T03:28:23.186Z,3.28
2022-09-03T03:30:25.285Z,3.25
2022-09-03T03:32:27.198Z,3.10
2022-09-03T03:36:33.176Z,2.55
2022-09-03T03:38:35.938Z,3.03
2022-09-03T03:40:39.436Z,3.15
2022-09-03T03:42:41.876Z,3.22
2022-09-03T03:44:44.246Z,3.30
2022-09-03T03:46:47.295Z,2.80
2022-09-03T03:48:50.307Z,2.70
2022-09-03T03:50:53.027Z,3.40
2022-09-03T03:52:55.261Z,2.75
2022-09-03T03:54:59.308Z,3.22
2022-09-03T03:57:01.280Z,3.28
2022-09-03T03:59:04.081Z,3.35
2022-09-03T04:01:08.258Z,3.20
2022-09-03T04:03:10.268Z,3.15
2022-09-03T04:05:12.181Z,3.15
2022-09-03T04:07:14.049Z,2.65
2022-09-03T04:09:15.937Z,2.88
2022-09-03T04:11:21.150Z,3.33
2022-09-03T04:13:31.826Z,3.30
2022-09-03T04:15:34.206Z,3.13
2022-09-03T04:17:36.061Z,3.25
2022-09-03T04:19:38.683Z,2.75
2022-09-03T04:21:40.706Z,3.10
2022-09-03T04:23:45.577Z,2.75
2022-09-03T04:25:53.179Z,2.80
2022-09-03T04:27:55.087Z,3.05
2022-09-03T04:30:00.464Z,2.70
2022-09-03T04:32:23.249Z,2.90
2022-09-03T04:34:25.169Z,2.70
2022-09-03T04:36:30.101Z,3.00
2022-09-03T04:38:33.701Z,2.95
2022-09-03T04:40:35.777Z,2.83
2022-09-03T04:42:37.734Z,3.05
2022-09-03T04:44:41.350Z,2.80
2022-09-03T04:46:43.356Z,2.88
2022-09-03T04:48:51.462Z,2.90
2022-09-03T04:50:55.263Z,3.17
2022-09-03T04:53:05.750Z,2.72
2022-09-03T04:55:11.041Z,2.95
2022-09-03T04:57:14.095Z,3.00
2022-09-03T04:59:16.995Z,2.83
2022-09-03T05:01:21.628Z,2.63
2022-09-03T05:03:24.697Z,2.80
2022-09-03T05:05:26.652Z,2.83
2022-09-03T05:07:28.732Z,2.60
2022-09-03T05:09:31.281Z,2.88
2022-09-03T05:11:34.632Z,3.15
2022-09-03T05:13:37.271Z,3.13
2022-09-03T05:15:39.186Z,2.78
2022-09-03T05:17:41.141Z,3.67
2022-09-03T05:19:42.980Z,3.10
2022-09-03T05:21:44.895Z,3.03
2022-09-03T05:23:48.707Z,2.92
2022-09-03T05:26:01.230Z,2.90
2022-09-03T05:28:03.521Z,2.70
2022-09-03T05:30:07.453Z,3.20
2022-09-03T05:32:09.503Z,3.05
2022-09-03T05:34:16.296Z,3.55
2022-09-03T05:36:23.169Z,4.63
2022-09-03T05:38:25.225Z,3.30
2022-09-03T05:40:27.247Z,3.15
2022-09-03T05:42:32.530Z,3.22
2022-09-03T05:44:34.829Z,3.58
2022-09-03T05:46:37.986Z,3.15
2022-09-03T05:48:41.301Z,2.83
2022-09-03T05:50:43.134Z,3.05
2022-09-03T05:52:45.036Z,3.13
2022-09-03T05:54:47.924Z,2.70
2022-09-03T05:56:50.178Z,2.95
2022-09-03T05:58:54.754Z,3.30
2022-09-03T06:00:56.644Z,3.53
2022-09-03T06:02:58.980Z,2.70
2022-09-03T06:05:00.922Z,2.85
2022-09-03T06:07:02.900Z,2.80
2022-09-03T06:09:11.075Z,3.30
2022-09-03T06:11:13.130Z,3.10
2022-09-03T06:13:15.151Z,3.03
2022-09-03T06:15:19.154Z,3.22
2022-09-03T06:17:21.522Z,3.33
2022-09-03T06:19:23.442Z,3.17
2022-09-03T06:21:25.368Z,3.38
2022-09-03T06:23:29.044Z,3.63
2022-09-03T06:25:32.200Z,2.53
2022-09-03T06:27:34.062Z,3.05
2022-09-03T06:29:37.217Z,2.50
2022-09-03T06:31:39.957Z,2.38
2022-09-03T06:33:43.324Z,3.15
2022-09-03T06:35:47.064Z,2.60
2022-09-03T06:37:49.274Z,2.80
2022-09-03T06:39:52.032Z,2.85
2022-09-03T06:41:54.834Z,2.20
2022-09-03T06:44:11.961Z,2.90
2022-09-03T06:46:17.614Z,2.60
2022-09-03T06:48:19.590Z,2.42
2022-09-03T06:50:22.202Z,2.40
2022-09-03T06:52:30.277Z,2.80
2022-09-03T06:54:32.180Z,2.53
2022-09-03T06:56:39.918Z,2.40
2022-09-03T06:58:45.038Z,2.70
2022-09-03T07:00:47.047Z,2.60
2022-09-03T07:02:49.046Z,2.40
2022-09-03T07:04:50.994Z,2.03
2022-09-03T07:06:53.894Z,2.47
2022-09-03T07:08:58.200Z,2.30
2022-09-03T07:11:01.866Z,2.85
2022-09-03T07:13:06.842Z,2.30
2022-09-03T07:15:10.252Z,2.03
2022-09-03T07:17:12.213Z,2.58
2022-09-03T07:19:17.756Z,2.10
2022-09-03T07:21:25.667Z,2.40
2022-09-03T07:23:31.429Z,2.42
2022-09-03T07:25:33.394Z,2.53
2022-09-03T07:27:35.842Z,2.05
2022-09-03T07:29:37.930Z,2.60
2022-09-03T07:31:41.908Z,2.15
2022-09-03T07:36:14.533Z,2.00
2022-09-03T07:38:20.627Z,2.40
2022-09-03T07:40:22.648Z,2.40
2022-09-03T07:42:24.562Z,1.90
2022-09-03T07:44:28.717Z,2.03
2022-09-03T07:46:30.709Z,2.45
2022-09-03T07:48:37.153Z,2.38
2022-09-03T07:50:40.470Z,2.35
2022-09-03T07:52:42.548Z,1.65
2022-09-03T07:54:45.088Z,1.88
2022-09-03T07:56:47.086Z,1.88
2022-09-03T07:58:49.029Z,3.30
2022-09-03T08:00:51.156Z,1.60
2022-09-03T08:02:53.254Z,1.80
2022-09-03T08:04:58.120Z,1.63
2022-09-03T08:07:00.256Z,1.67
2022-09-03T08:09:05.723Z,1.90
2022-09-03T08:11:12.059Z,1.77
2022-09-03T08:13:14.074Z,1.60
2022-09-03T08:15:16.146Z,1.80
2022-09-03T08:17:18.147Z,1.45
2022-09-03T08:19:20.240Z,1.60
2022-09-03T08:21:22.870Z,2.05
2022-09-03T08:23:25.062Z,1.83
2022-09-03T08:25:27.081Z,1.60
2022-09-03T08:27:30.478Z,1.90
2022-09-03T08:29:35.722Z,1.98
2022-09-03T08:31:38.523Z,2.47
2022-09-03T08:33:46.413Z,1.92
2022-09-03T08:35:55.003Z,2.05
2022-09-03T08:37:58.028Z,1.73
2022-09-03T08:40:00.673Z,1.80
2022-09-03T08:42:13.266Z,2.22
2022-09-03T08:44:42.458Z,2.20
2022-09-03T08:46:51.871Z,1.83
2022-09-03T08:48:55.803Z,1.63
2022-09-03T08:51:01.946Z,1.60
2022-09-03T08:53:10.209Z,1.40
2022-09-03T08:55:27.438Z,1.67
2022-09-03T08:57:37.473Z,1.73
2022-09-03T08:59:39.438Z,1.55
2022-09-03T09:01:55.801Z,1.65
2022-09-03T09:04:05.992Z,1.30
2022-09-03T09:07:01.995Z,1.52
2022-09-03T09:09:08.106Z,1.27
2022-09-03T09:11:45.759Z,1.42
2022-09-03T09:13:57.033Z,1.45
2022-09-03T09:16:44.314Z,1.38
2022-09-03T09:19:12.782Z,1.30
2022-09-03T09:21:27.656Z,1.40
2022-09-03T09:23:32.557Z,1.15
2022-09-03T09:25:42.024Z,1.10
2022-09-03T09:27:55.252Z,1.20
2022-09-03T09:30:02.146Z,1.20
2022-09-03T09:32:08.660Z,1.25
2022-09-03T09:34:10.940Z,1.52
2022-09-03T09:36:17.197Z,1.42
2022-09-03T09:38:32.475Z,1.38
2022-09-03T09:40:41.489Z,1.42
2022-09-03T09:42:48.353Z,1.10
2022-09-03T09:44:50.574Z,1.27
2022-09-03T09:47:03.945Z,1.42
2022-09-03T09:49:29.951Z,1.33
2022-09-03T09:51:32.540Z,1.60
2022-09-03T09:53:35.358Z,1.70
2022-09-03T09:55:49.309Z,1.50
2022-09-03T09:57:54.268Z,1.60
2022-09-03T10:00:13.074Z,1.58
2022-09-03T10:02:29.292Z,1.55
2022-09-03T10:04:33.555Z,1.55
2022-09-03T10:06:54.309Z,1.80
2022-09-03T10:09:20.527Z,1.85
2022-09-03T10:11:25.846Z,1.88
2022-09-03T10:13:42.933Z,1.63
2022-09-03T10:15:51.504Z,1.70
2022-09-03T10:18:00.682Z,1.63
2022-09-03T10:20:24.690Z,1.50
2022-09-03T10:22:26.717Z,1.30
2022-09-03T10:24:59.236Z,1.40
2022-09-03T10:27:01.994Z,1.45
2022-09-03T10:29:06.122Z,1.50
2022-09-03T10:31:25.236Z,1.38
2022-09-03T10:33:34.608Z,1.23
2022-09-03T10:35:46.532Z,2.35
2022-09-03T10:38:00.164Z,1.35
2022-09-03T10:40:11.057Z,1.40
2022-09-03T10:42:33.774Z,1.45
2022-09-03T10:44:38.928Z,1.60
2022-09-03T10:46:59.763Z,1.50
2022-09-03T10:49:17.241Z,1.63
2022-09-03T10:51:36.143Z,1.30
2022-09-03T10:53:46.931Z,1.25
2022-09-03T10:56:05.703Z,1.60
2022-09-03T10:58:27.766Z,1.90
2022-09-03T11:00:32.991Z,1.35
2022-09-03T11:02:53.682Z,1.40
2022-09-03T11:05:03.283Z,1.60
2022-09-03T11:07:12.568Z,1.58
2022-09-03T11:09:20.525Z,1.23
2022-09-03T11:11:32.207Z,1.38
2022-09-03T11:13:42.729Z,1.30
2022-09-03T11:16:05.299Z,1.35
2022-09-03T11:18:22.330Z,1.17
2022-09-03T11:20:26.128Z,1.20
2022-09-03T11:22:35.259Z,1.13
2022-09-03T11:24:41.246Z,1.25
2022-09-03T11:26:54.549Z,1.40
2022-09-03T11:28:59.094Z,1.38
2022-09-03T11:31:21.096Z,1.30
2022-09-03T11:33:26.003Z,1.48
2022-09-03T11:35:55.536Z,1.30
2022-09-03T11:38:03.186Z,1.13
2022-09-03T11:40:13.977Z,1.60
2022-09-03T11:42:43.246Z,1.20
2022-09-03T11:44:51.149Z,1.10
2022-09-03T11:46:59.095Z,1.27
2022-09-03T11:49:14.040Z,1.38
2022-09-03T11:51:31.288Z,1.35
2022-09-03T11:53:37.041Z,1.10
2022-09-03T11:55:55.918Z,1.40
2022-09-03T11:57:58.943Z,1.40
2022-09-03T12:00:13.418Z,1.50
2022-09-03T12:02:27.381Z,1.10
2022-09-03T12:04:53.873Z,0.95
2022-09-03T12:07:09.166Z,1.30
2022-09-03T12:09:29.399Z,1.23
2022-09-03T12:11:37.390Z,1.00
2022-09-03T12:13:57.267Z,1.25
2022-09-03T12:16:14.268Z,1.05
2022-09-03T12:18:29.495Z,1.00
2022-09-03T12:20:31.501Z,1.17
2022-09-03T12:22:38.935Z,1.13
2022-09-03T12:24:43.321Z,1.02
2022-09-03T12:26:45.461Z,0.98
2022-09-03T12:28:50.046Z,1.13
2022-09-03T12:30:54.119Z,1.02
2022-09-03T12:33:14.363Z,1.00
2022-09-03T12:40:18.498Z,1.17
2022-09-03T12:42:28.775Z,1.30
2022-09-03T12:44:42.903Z,1.23
2022-09-03T12:46:46.939Z,1.10
2022-09-03T12:51:56.702Z,1.08
2022-09-03T12:53:59.862Z,0.95
2022-09-03T12:56:02.917Z,1.30
2022-09-03T12:58:16.738Z,1.40
2022-09-03T13:00:20.329Z,1.58
2022-09-03T13:02:29.827Z,0.90
2022-09-03T13:04:36.573Z,1.27
2022-09-03T13:07:04.106Z,1.15
2022-09-03T13:09:09.474Z,1.40
2022-09-03T13:11:15.710Z,1.38
2022-09-03T13:13:23.526Z,1.35
2022-09-03T13:15:28.281Z,1.00
2022-09-03T13:17:41.046Z,1.13
2022-09-03T13:19:48.988Z,1.40
2022-09-03T13:22:21.524Z,1.10
2022-09-03T13:24:31.925Z,1.00
2022-09-03T13:26:47.806Z,1.00
2022-09-03T13:28:55.760Z,1.30
2022-09-03T13:31:12.397Z,0.93
2022-09-03T13:33:34.847Z,1.10
2022-09-03T13:35:47.427Z,1.33
2022-09-03T13:37:59.188Z,1.33
2022-09-03T13:40:35.373Z,1.00
2022-09-03T13:42:41.999Z,1.30
2022-09-03T13:44:54.641Z,1.08
2022-09-03T13:47:03.736Z,3.28
2022-09-03T13:49:44.247Z,1.52
2022-09-03T13:51:57.046Z,1.58
2022-09-03T13:54:42.473Z,1.20
2022-09-03T13:56:57.140Z,2.60
2022-09-03T13:59:29.501Z,1.88
2022-09-03T14:02:41.176Z,1.20
2022-09-03T14:04:58.773Z,1.33
2022-09-03T14:07:10.297Z,1.13
2022-09-03T14:11:43.568Z,1.50
2022-09-03T14:14:02.856Z,1.60
2022-09-03T14:16:31.368Z,1.55
2022-09-03T14:18:57.615Z,1.25
2022-09-03T14:21:14.397Z,1.25
2022-09-03T14:23:43.837Z,1.55
2022-09-03T14:26:04.119Z,1.40
2022-09-03T14:28:32.094Z,1.50
2022-09-03T14:30:55.614Z,1.20
2022-09-03T14:33:16.390Z,1.40
2022-09-03T14:35:39.451Z,1.33
2022-09-03T14:38:13.113Z,1.15
2022-09-03T14:40:19.980Z,2.42
2022-09-03T14:42:38.200Z,1.20
2022-09-03T14:45:08.302Z,1.27
2022-09-03T14:47:20.401Z,1.40
2022-09-03T14:50:07.911Z,1.38
2022-09-03T14:52:23.064Z,1.42
2022-09-03T14:54:37.214Z,1.20
2022-09-03T14:56:48.014Z,1.27
2022-09-03T14:59:01.132Z,1.45
2022-09-03T15:01:06.547Z,1.10
2022-09-03T15:03:24.709Z,1.60
2022-09-03T15:05:38.634Z,2.20
2022-09-03T15:07:51.814Z,10.77
2022-09-03T15:10:16.149Z,1.45
2022-09-03T15:13:08.003Z,2.15
2022-09-03T15:15:38.523Z,1.30
2022-09-03T15:18:15.612Z,2.08
2022-09-03T15:20:49.228Z,1.30
2022-09-03T15:23:13.446Z,1.27
2022-09-03T15:26:00.546Z,1.98
2022-09-03T15:28:33.992Z,1.23
2022-09-03T15:30:57.795Z,1.60
2022-09-03T15:33:37.402Z,1.08
2022-09-03T15:36:01.215Z,1.35
2022-09-03T15:38:20.087Z,1.73
2022-09-03T15:40:38.153Z,1.77
2022-09-03T15:42:44.812Z,1.73
2022-09-03T15:44:55.550Z,1.55
2022-09-03T15:47:50.616Z,1.40
2022-09-03T15:50:11.212Z,1.92
2022-09-03T15:52:37.162Z,1.15
2022-09-03T15:55:10.062Z,1.17
2022-09-03T15:57:54.802Z,1.73
2022-09-03T16:00:02.892Z,1.17
2022-09-03T16:02:49.517Z,1.80
2022-09-03T16:05:34.089Z,1.58
2022-09-03T16:08:15.135Z,1.42
2022-09-03T16:10:32.873Z,1.60
2022-09-03T16:13:14.715Z,1.60
2022-09-03T16:15:23.563Z,1.25
2022-09-03T16:17:49.721Z,1.88
2022-09-03T16:19:58.357Z,1.83
2022-09-03T16:22:07.376Z,1.80
2022-09-03T16:24:21.546Z,1.70
2022-09-03T16:26:41.475Z,2.42
2022-09-03T16:28:53.726Z,2.10
2022-09-03T16:31:34.884Z,1.92
2022-09-03T16:34:18.809Z,2.17
2022-09-03T16:36:50.419Z,2.15
2022-09-03T16:39:03.241Z,2.17
2022-09-03T16:41:24.240Z,3.08
2022-09-03T16:44:03.302Z,4.47
2022-09-03T16:46:23.334Z,1.95
2022-09-03T16:48:29.396Z,3.40
2022-09-03T16:50:43.861Z,3.38
2022-09-03T16:53:17.931Z,2.55
2022-09-03T16:55:59.379Z,2.38
2022-09-03T16:58:08.281Z,2.28
2022-09-03T17:00:21.147Z,1.95
2022-09-03T17:02:52.524Z,2.95
2022-09-03T17:05:08.907Z,4.43
2022-09-03T17:07:47.157Z,5.03
2022-09-03T17:09:57.269Z,4.05
2022-09-03T17:12:08.224Z,4.22
2022-09-03T17:14:56.892Z,4.22
2022-09-03T17:17:26.136Z,3.67
2022-09-03T17:19:52.160Z,3.05
2022-09-03T17:22:03.123Z,2.90
2022-09-03T17:24:24.782Z,3.00
2022-09-03T17:29:45.895Z,3.03
2022-09-03T17:32:28.234Z,5.85
2022-09-03T17:35:19.834Z,4.32
2022-09-03T17:37:44.985Z,8.32
2022-09-03T17:40:03.861Z,5.47
2022-09-03T17:42:29.440Z,3.50
2022-09-03T17:45:13.244Z,3.38
2022-09-03T17:47:43.835Z,3.70
2022-09-03T17:50:28.463Z,4.70
2022-09-03T17:52:48.841Z,5.93
2022-09-03T17:55:12.101Z,6.90
2022-09-03T17:57:43.659Z,7.85
2022-09-03T18:00:12.653Z,9.65
2022-09-03T18:02:24.086Z,10.35
2022-09-03T18:06:55.259Z,7.22
2022-09-03T18:09:09.981Z,8.40
2022-09-03T18:11:34.177Z,8.55
2022-09-03T18:13:54.843Z,10.60
2022-09-03T18:16:32.939Z,11.77
2022-09-03T18:18:46.553Z,10.27
2022-09-03T18:21:29.298Z,8.13
2022-09-03T18:24:03.715Z,8.13
2022-09-03T18:26:46.535Z,9.45
2022-09-03T18:29:26.018Z,10.48
2022-09-03T18:31:48.569Z,13.10
2022-09-03T18:34:32.204Z,12.05
2022-09-03T18:36:57.713Z,12.63
2022-09-03T18:39:35.229Z,13.48
2022-09-03T18:42:18.801Z,16.05
2022-09-03T18:44:48.891Z,16.08
2022-09-03T18:48:02.235Z,15.95
2022-09-03T18:50:45.920Z,15.52
2022-09-03T18:53:31.200Z,14.35
2022-09-03T18:59:32.738Z,13.50
2022-09-03T19:02:01.252Z,14.02
2022-09-03T19:04:47.428Z,15.25
2022-09-03T19:07:26.083Z,13.98
2022-09-03T19:09:55.677Z,13.40
2022-09-03T19:12:20.351Z,14.00
2022-09-03T19:14:54.109Z,14.57
2022-09-03T19:17:27.306Z,15.40
2022-09-03T19:19:48.068Z,14.10
2022-09-03T19:22:34.470Z,15.30
2022-09-03T19:24:56.130Z,14.93
2022-09-03T19:27:55.692Z,11.77
2022-09-03T19:30:53.202Z,10.52
2022-09-03T19:33:22.101Z,10.60
2022-09-03T19:36:01.624Z,10.45
2022-09-03T19:38:38.248Z,10.63
2022-09-03T19:41:37.782Z,12.38
2022-09-03T19:44:04.143Z,10.23
2022-09-03T19:46:57.786Z,11.85
2022-09-03T19:49:53.246Z,14.93
2022-09-03T19:52:38.763Z,13.85
2022-09-03T19:55:00.324Z,13.00
2022-09-03T19:59:45.594Z,12.68
2022-09-03T20:02:14.445Z,13.15
2022-09-03T20:04:36.083Z,11.07
2022-09-03T20:09:29.137Z,8.40
2022-09-03T20:11:32.178Z,8.10
2022-09-03T20:13:58.483Z,8.07
2022-09-03T20:16:14.523Z,7.32
2022-09-03T20:18:45.416Z,8.50
2022-09-03T20:21:02.731Z,6.78
2022-09-03T20:23:23.733Z,7.35
2022-09-03T20:26:06.197Z,5.88
2022-09-03T20:28:36.855Z,5.90
2022-09-03T20:30:50.820Z,5.68
2022-09-03T20:33:11.194Z,5.22
2022-09-03T20:35:20.905Z,6.10
2022-09-03T20:37:36.409Z,5.88
2022-09-03T20:39:56.884Z,6.30
2022-09-03T20:42:07.219Z,7.15
2022-09-03T20:44:27.543Z,6.70
2022-09-03T20:46:51.184Z,6.15
2022-09-03T20:49:15.413Z,5.82
2022-09-03T20:51:23.245Z,6.90
2022-09-03T20:53:53.064Z,6.53
2022-09-03T20:56:01.498Z,5.68
2022-09-03T20:58:19.691Z,5.60
2022-09-03T21:00:23.485Z,5.20
2022-09-03T21:02:58.527Z,5.43
2022-09-03T21:05:15.234Z,5.00
2022-09-03T21:07:44.029Z,5.07
2022-09-03T21:09:56.268Z,5.15
2022-09-03T21:12:21.289Z,5.00
2022-09-03T21:14:37.403Z,4.35
2022-09-03T21:16:48.229Z,4.30
2022-09-03T21:18:53.033Z,4.45
2022-09-03T21:21:45.858Z,4.65
2022-09-03T21:23:56.814Z,4.57
2022-09-03T21:26:04.442Z,4.68
2022-09-03T21:28:14.576Z,4.70
2022-09-03T21:30:21.291Z,4.72
2022-09-03T21:32:47.463Z,4.30
2022-09-03T21:35:19.047Z,4.35
2022-09-03T21:37:24.076Z,4.60
2022-09-03T21:39:33.221Z,5.03
2022-09-03T21:41:45.094Z,4.90
2022-09-03T21:43:55.057Z,5.10
2022-09-03T21:46:07.188Z,5.00
2022-09-03T21:48:25.648Z,4.32
2022-09-03T21:50:55.049Z,4.63
2022-09-03T21:53:38.404Z,4.70
2022-09-03T21:56:03.438Z,4.82
2022-09-03T21:58:17.477Z,4.88
2022-09-03T22:00:32.853Z,4.70
2022-09-03T22:02:37.131Z,5.10
2022-09-03T22:04:58.563Z,4.90
2022-09-03T22:07:11.295Z,4.90
2022-09-03T22:09:42.134Z,4.68
2022-09-03T22:12:06.874Z,5.20
2022-09-03T22:14:18.182Z,5.35
2022-09-03T22:16:45.554Z,5.18
2022-09-03T22:18:50.471Z,6.78
2022-09-03T22:21:20.411Z,5.78
2022-09-03T22:23:29.036Z,5.25
2022-09-03T22:25:44.711Z,5.75
2022-09-03T22:28:13.632Z,5.20
2022-09-03T22:30:21.757Z,5.03
2022-09-03T22:33:05.598Z,5.90
2022-09-03T22:35:18.854Z,5.90
2022-09-03T22:37:56.723Z,6.32
2022-09-03T22:40:19.320Z,5.70
2022-09-03T22:42:30.155Z,5.53
2022-09-03T22:44:32.420Z,6.10
2022-09-03T22:46:43.922Z,5.80
2022-09-03T22:51:18.727Z,9.50
2022-09-03T22:53:59.478Z,19.63
2022-09-03T22:56:12.235Z,23.45
2022-09-03T22:58:21.182Z,19.58
2022-09-03T23:00:23.766Z,18.63
2022-09-03T23:02:30.467Z,13.82
2022-09-03T23:05:06.765Z,13.68
2022-09-03T23:07:30.897Z,12.13
2022-09-03T23:09:38.120Z,14.63
2022-09-03T23:12:13.046Z,22.13
2022-09-03T23:14:50.923Z,35.33
2022-09-03T23:16:59.387Z,32.05
2022-09-03T23:19:39.797Z,34.17
2022-09-03T23:21:58.469Z,33.65
2022-09-03T23:24:11.076Z,33.85
2022-09-03T23:26:23.753Z,32.42
2022-09-03T23:28:35.703Z,32.90
2022-09-03T23:30:37.715Z,31.77
2022-09-03T23:32:42.963Z,33.75
2022-09-03T23:34:49.743Z,31.88
2022-09-03T23:37:33.190Z,29.63
2022-09-03T23:39:41.943Z,30.77
2022-09-03T23:42:02.597Z,26.63
2022-09-03T23:44:35.437Z,20.08
2022-09-03T23:46:48.519Z,18.65
2022-09-03T23:49:14.464Z,25.77
2022-09-03T23:51:45.353Z,23.90
2022-09-03T23:54:08.820Z,18.08
2022-09-03T23:56:18.556Z,18.75
2022-09-03T23:58:31.364Z,17.70
